Terminal Aerodrome Forecast
Issued by NWS

Current Version | Previous Version | Text Only | Print | Product List | Glossary Off
Versions: 1 2 3 4 5 6 7 8 9 10 11 12 13 14 15 16 17 18 19 20 21 22 23 24 25 26 27 28 29 30 31 32

000
FTUS41 KILN 281835 AAA
TAFLCK
TAF AMD
KLCK 281835Z 2819/2918 12008KT P6SM -SHRA VCTS BKN050CB OVC080
      TEMPO 2819/2823 3SM TSRA BR BKN025CB
     FM290200 12007KT P6SM VCTS OVC050CB
     FM290400 11005KT 6SM BR BKN040
     FM290600 10003KT 4SM BR BKN015
     FM290800 VRB03KT 2SM BR OVC006
      TEMPO 2908/2912 1/2SM FG
     FM291500 06005KT 4SM BR OVC012=

USA.gov is the U.S. government's official web portal to all federal, state and local government web resources and services.